sensor_id;sensor_type;location;lat;lon;timestamp;P1;durP1;ratioP1;P2;durP2;ratioP2
23175;SDS011;19910;42.652;23.332;2023-05-27T00:01:50;9.35;;;6.10;;
23175;SDS011;19910;42.652;23.332;2023-05-27T00:04:16;10.50;;;6.97;;
23175;SDS011;19910;42.652;23.332;2023-05-27T00:06:43;15.05;;;9.75;;
23175;SDS011;19910;42.652;23.332;2023-05-27T00:09:10;19.63;;;9.43;;
23175;SDS011;19910;42.652;23.332;2023-05-27T00:11:38;16.67;;;9.88;;
23175;SDS011;19910;42.652;23.332;2023-05-27T00:14:05;15.70;;;10.80;;
23175;SDS011;19910;42.652;23.332;2023-05-27T00:16:32;18.98;;;10.45;;
23175;SDS011;19910;42.652;23.332;2023-05-27T00:19:01;17.40;;;10.15;;
23175;SDS011;19910;42.652;23.332;2023-05-27T00:21:28;11.68;;;6.78;;
23175;SDS011;19910;42.652;23.332;2023-05-27T00:23:54;13.77;;;7.68;;
23175;SDS011;19910;42.652;23.332;2023-05-27T00:26:22;15.27;;;8.57;;
23175;SDS011;19910;42.652;23.332;2023-05-27T00:28:50;21.92;;;8.60;;
23175;SDS011;19910;42.652;23.332;2023-05-27T00:31:17;13.18;;;8.35;;
23175;SDS011;19910;42.652;23.332;2023-05-27T00:33:44;13.02;;;8.43;;
23175;SDS011;19910;42.652;23.332;2023-05-27T00:36:11;11.32;;;7.22;;
23175;SDS011;19910;42.652;23.332;2023-05-27T00:38:38;12.77;;;7.60;;
23175;SDS011;19910;42.652;23.332;2023-05-27T00:41:04;9.70;;;7.22;;
23175;SDS011;19910;42.652;23.332;2023-05-27T00:43:32;13.60;;;7.10;;
23175;SDS011;19910;42.652;23.332;2023-05-27T00:46:00;11.25;;;7.15;;
23175;SDS011;19910;42.652;23.332;2023-05-27T00:48:27;8.68;;;6.18;;
23175;SDS011;19910;42.652;23.332;2023-05-27T00:50:54;6.75;;;4.85;;
23175;SDS011;19910;42.652;23.332;2023-05-27T00:53:21;4.63;;;2.60;;
23175;SDS011;19910;42.652;23.332;2023-05-27T00:55:50;2.55;;;2.05;;
23175;SDS011;19910;42.652;23.332;2023-05-27T00:58:19;2.92;;;2.30;;
23175;SDS011;19910;42.652;23.332;2023-05-27T01:00:46;5.38;;;2.47;;
23175;SDS011;19910;42.652;23.332;2023-05-27T01:03:15;2.45;;;2.10;;
23175;SDS011;19910;42.652;23.332;2023-05-27T01:05:42;2.72;;;1.98;;
23175;SDS011;19910;42.652;23.332;2023-05-27T01:08:21;4.05;;;2.05;;
23175;SDS011;19910;42.652;23.332;2023-05-27T01:10:55;2.03;;;1.67;;
23175;SDS011;19910;42.652;23.332;2023-05-27T01:13:26;1.92;;;1.60;;
23175;SDS011;19910;42.652;23.332;2023-05-27T01:15:59;2.90;;;1.75;;
23175;SDS011;19910;42.652;23.332;2023-05-27T01:18:30;3.58;;;1.80;;
23175;SDS011;19910;42.652;23.332;2023-05-27T01:20:59;4.07;;;2.00;;
23175;SDS011;19910;42.652;23.332;2023-05-27T01:23:32;3.67;;;2.63;;
23175;SDS011;19910;42.652;23.332;2023-05-27T01:25:59;3.83;;;2.70;;
23175;SDS011;19910;42.652;23.332;2023-05-27T01:28:26;4.40;;;2.90;;
23175;SDS011;19910;42.652;23.332;2023-05-27T01:30:54;3.35;;;2.65;;
23175;SDS011;19910;42.652;23.332;2023-05-27T01:33:25;3.67;;;2.75;;
23175;SDS011;19910;42.652;23.332;2023-05-27T01:35:58;3.35;;;2.50;;
23175;SDS011;19910;42.652;23.332;2023-05-27T01:38:30;4.05;;;2.50;;
23175;SDS011;19910;42.652;23.332;2023-05-27T01:41:02;3.13;;;2.28;;
23175;SDS011;19910;42.652;23.332;2023-05-27T01:43:29;3.90;;;2.50;;
23175;SDS011;19910;42.652;23.332;2023-05-27T01:45:57;3.30;;;2.60;;
23175;SDS011;19910;42.652;23.332;2023-05-27T01:48:25;2.72;;;2.05;;
23175;SDS011;19910;42.652;23.332;2023-05-27T01:50:52;2.92;;;2.15;;
23175;SDS011;19910;42.652;23.332;2023-05-27T01:53:19;4.63;;;2.50;;
23175;SDS011;19910;42.652;23.332;2023-05-27T01:55:47;4.50;;;2.67;;
23175;SDS011;19910;42.652;23.332;2023-05-27T01:58:14;4.63;;;2.50;;
23175;SDS011;19910;42.652;23.332;2023-05-27T02:00:41;4.60;;;2.83;;
23175;SDS011;19910;42.652;23.332;2023-05-27T02:03:08;4.38;;;2.35;;
23175;SDS011;19910;42.652;23.332;2023-05-27T02:05:34;3.53;;;2.75;;
23175;SDS011;19910;42.652;23.332;2023-05-27T02:08:02;3.15;;;2.40;;
23175;SDS011;19910;42.652;23.332;2023-05-27T02:10:28;3.13;;;2.38;;
23175;SDS011;19910;42.652;23.332;2023-05-27T02:12:57;3.13;;;2.47;;
23175;SDS011;19910;42.652;23.332;2023-05-27T02:15:23;3.28;;;2.33;;
23175;SDS011;19910;42.652;23.332;2023-05-27T02:17:51;3.05;;;2.10;;
23175;SDS011;19910;42.652;23.332;2023-05-27T02:20:20;3.58;;;2.08;;
23175;SDS011;19910;42.652;23.332;2023-05-27T02:22:48;5.70;;;2.20;;
23175;SDS011;19910;42.652;23.332;2023-05-27T02:25:16;3.50;;;2.72;;
23175;SDS011;19910;42.652;23.332;2023-05-27T02:27:42;2.92;;;2.08;;
23175;SDS011;19910;42.652;23.332;2023-05-27T02:30:15;3.08;;;2.13;;
23175;SDS011;19910;42.652;23.332;2023-05-27T02:32:42;3.55;;;2.22;;
23175;SDS011;19910;42.652;23.332;2023-05-27T02:35:10;3.50;;;1.80;;
23175;SDS011;19910;42.652;23.332;2023-05-27T02:37:38;2.33;;;2.00;;
23175;SDS011;19910;42.652;23.332;2023-05-27T02:40:05;1.83;;;1.50;;
23175;SDS011;19910;42.652;23.332;2023-05-27T02:42:34;3.05;;;1.65;;
23175;SDS011;19910;42.652;23.332;2023-05-27T02:45:01;4.07;;;1.60;;
23175;SDS011;19910;42.652;23.332;2023-05-27T02:47:29;2.50;;;1.80;;
23175;SDS011;19910;42.652;23.332;2023-05-27T02:49:56;2.03;;;1.60;;
23175;SDS011;19910;42.652;23.332;2023-05-27T02:52:22;1.63;;;1.50;;
23175;SDS011;19910;42.652;23.332;2023-05-27T02:54:49;2.15;;;1.65;;
23175;SDS011;19910;42.652;23.332;2023-05-27T02:57:16;2.13;;;1.88;;
23175;SDS011;19910;42.652;23.332;2023-05-27T02:59:44;1.90;;;1.63;;
23175;SDS011;19910;42.652;23.332;2023-05-27T03:02:10;2.03;;;1.70;;
23175;SDS011;19910;42.652;23.332;2023-05-27T03:04:38;2.58;;;2.00;;
23175;SDS011;19910;42.652;23.332;2023-05-27T03:07:05;2.30;;;2.00;;
23175;SDS011;19910;42.652;23.332;2023-05-27T03:09:32;2.95;;;2.33;;
23175;SDS011;19910;42.652;23.332;2023-05-27T03:11:59;3.08;;;2.15;;
23175;SDS011;19910;42.652;23.332;2023-05-27T03:14:26;2.90;;;2.28;;
23175;SDS011;19910;42.652;23.332;2023-05-27T03:16:53;2.70;;;2.40;;
23175;SDS011;19910;42.652;23.332;2023-05-27T03:19:20;3.08;;;2.58;;
23175;SDS011;19910;42.652;23.332;2023-05-27T03:21:49;4.22;;;2.80;;
23175;SDS011;19910;42.652;23.332;2023-05-27T03:24:16;6.80;;;2.50;;
23175;SDS011;19910;42.652;23.332;2023-05-27T03:26:42;4.53;;;2.20;;
23175;SDS011;19910;42.652;23.332;2023-05-27T03:29:09;3.10;;;2.80;;
23175;SDS011;19910;42.652;23.332;2023-05-27T03:31:36;5.70;;;2.95;;
23175;SDS011;19910;42.652;23.332;2023-05-27T03:34:03;3.42;;;2.63;;
23175;SDS011;19910;42.652;23.332;2023-05-27T03:36:30;4.45;;;3.17;;
23175;SDS011;19910;42.652;23.332;2023-05-27T03:38:58;4.22;;;3.03;;
23175;SDS011;19910;42.652;23.332;2023-05-27T03:41:25;5.28;;;3.08;;
23175;SDS011;19910;42.652;23.332;2023-05-27T03:43:51;6.30;;;2.53;;
23175;SDS011;19910;42.652;23.332;2023-05-27T03:46:18;4.20;;;3.10;;
23175;SDS011;19910;42.652;23.332;2023-05-27T03:48:45;4.28;;;2.78;;
23175;SDS011;19910;42.652;23.332;2023-05-27T03:51:12;4.32;;;3.45;;
23175;SDS011;19910;42.652;23.332;2023-05-27T03:53:39;10.70;;;3.45;;
23175;SDS011;19910;42.652;23.332;2023-05-27T03:56:07;5.10;;;3.35;;
23175;SDS011;19910;42.652;23.332;2023-05-27T03:58:34;5.13;;;3.33;;
23175;SDS011;19910;42.652;23.332;2023-05-27T04:01:01;5.30;;;3.80;;
23175;SDS011;19910;42.652;23.332;2023-05-27T04:03:28;4.88;;;3.15;;
23175;SDS011;19910;42.652;23.332;2023-05-27T04:05:55;5.18;;;3.50;;
23175;SDS011;19910;42.652;23.332;2023-05-27T04:08:22;5.53;;;3.60;;
23175;SDS011;19910;42.652;23.332;2023-05-27T04:10:51;6.28;;;3.67;;
23175;SDS011;19910;42.652;23.332;2023-05-27T04:13:19;5.95;;;3.65;;
23175;SDS011;19910;42.652;23.332;2023-05-27T04:15:46;4.47;;;3.65;;
23175;SDS011;19910;42.652;23.332;2023-05-27T04:18:14;3.92;;;3.17;;
23175;SDS011;19910;42.652;23.332;2023-05-27T04:20:41;7.15;;;3.75;;
23175;SDS011;19910;42.652;23.332;2023-05-27T04:23:09;6.72;;;3.55;;
23175;SDS011;19910;42.652;23.332;2023-05-27T04:25:36;6.22;;;3.90;;
23175;SDS011;19910;42.652;23.332;2023-05-27T04:28:04;6.93;;;5.10;;
23175;SDS011;19910;42.652;23.332;2023-05-27T04:30:33;4.38;;;3.55;;
23175;SDS011;19910;42.652;23.332;2023-05-27T04:33:01;5.47;;;3.80;;
23175;SDS011;19910;42.652;23.332;2023-05-27T04:35:28;4.82;;;4.30;;
23175;SDS011;19910;42.652;23.332;2023-05-27T04:37:56;5.07;;;3.67;;
23175;SDS011;19910;42.652;23.332;2023-05-27T04:40:24;4.45;;;3.20;;
23175;SDS011;19910;42.652;23.332;2023-05-27T04:42:51;4.35;;;3.35;;
23175;SDS011;19910;42.652;23.332;2023-05-27T04:45:18;6.03;;;3.67;;
23175;SDS011;19910;42.652;23.332;2023-05-27T04:47:46;4.85;;;3.60;;
23175;SDS011;19910;42.652;23.332;2023-05-27T04:50:13;4.50;;;3.05;;
23175;SDS011;19910;42.652;23.332;2023-05-27T04:52:40;9.15;;;3.35;;
23175;SDS011;19910;42.652;23.332;2023-05-27T04:55:07;5.20;;;3.45;;
23175;SDS011;19910;42.652;23.332;2023-05-27T04:57:36;5.13;;;4.18;;
23175;SDS011;19910;42.652;23.332;2023-05-27T05:00:06;5.72;;;4.90;;
23175;SDS011;19910;42.652;23.332;2023-05-27T05:02:49;7.00;;;4.47;;
23175;SDS011;19910;42.652;23.332;2023-05-27T05:05:25;6.10;;;3.85;;
23175;SDS011;19910;42.652;23.332;2023-05-27T05:07:53;5.75;;;3.47;;
23175;SDS011;19910;42.652;23.332;2023-05-27T05:10:20;4.68;;;3.70;;
23175;SDS011;19910;42.652;23.332;2023-05-27T05:12:47;5.53;;;3.80;;
23175;SDS011;19910;42.652;23.332;2023-05-27T05:15:14;5.38;;;4.53;;
23175;SDS011;19910;42.652;23.332;2023-05-27T05:17:41;7.25;;;3.88;;
23175;SDS011;19910;42.652;23.332;2023-05-27T05:20:09;5.93;;;3.85;;
23175;SDS011;19910;42.652;23.332;2023-05-27T05:22:37;5.70;;;4.30;;
23175;SDS011;19910;42.652;23.332;2023-05-27T05:25:04;7.32;;;3.90;;
23175;SDS011;19910;42.652;23.332;2023-05-27T05:27:32;4.72;;;3.30;;
23175;SDS011;19910;42.652;23.332;2023-05-27T05:29:59;5.55;;;3.60;;
23175;SDS011;19910;42.652;23.332;2023-05-27T05:32:26;6.20;;;3.65;;
23175;SDS011;19910;42.652;23.332;2023-05-27T05:34:52;5.00;;;4.00;;
23175;SDS011;19910;42.652;23.332;2023-05-27T05:37:21;5.85;;;3.83;;
23175;SDS011;19910;42.652;23.332;2023-05-27T05:39:47;7.20;;;3.53;;
23175;SDS011;19910;42.652;23.332;2023-05-27T05:42:14;5.15;;;3.67;;
23175;SDS011;19910;42.652;23.332;2023-05-27T05:44:41;4.82;;;3.67;;
23175;SDS011;19910;42.652;23.332;2023-05-27T05:47:08;4.40;;;3.30;;
23175;SDS011;19910;42.652;23.332;2023-05-27T05:49:34;5.38;;;3.72;;
23175;SDS011;19910;42.652;23.332;2023-05-27T05:52:01;6.03;;;3.83;;
23175;SDS011;19910;42.652;23.332;2023-05-27T05:54:29;5.25;;;3.90;;
23175;SDS011;19910;42.652;23.332;2023-05-27T05:56:56;5.75;;;3.35;;
23175;SDS011;19910;42.652;23.332;2023-05-27T05:59:23;4.05;;;2.92;;
23175;SDS011;19910;42.652;23.332;2023-05-27T06:01:50;5.75;;;3.83;;
23175;SDS011;19910;42.652;23.332;2023-05-27T06:04:16;4.90;;;3.50;;
23175;SDS011;19910;42.652;23.332;2023-05-27T06:06:43;5.13;;;3.25;;
23175;SDS011;19910;42.652;23.332;2023-05-27T06:09:10;5.60;;;3.75;;
23175;SDS011;19910;42.652;23.332;2023-05-27T06:11:38;11.38;;;3.72;;
23175;SDS011;19910;42.652;23.332;2023-05-27T06:14:05;6.68;;;3.67;;
23175;SDS011;19910;42.652;23.332;2023-05-27T06:16:32;5.15;;;4.32;;
23175;SDS011;19910;42.652;23.332;2023-05-27T06:19:00;5.88;;;4.40;;
23175;SDS011;19910;42.652;23.332;2023-05-27T06:21:27;6.57;;;3.92;;
23175;SDS011;19910;42.652;23.332;2023-05-27T06:23:54;7.47;;;4.60;;
23175;SDS011;19910;42.652;23.332;2023-05-27T06:26:21;8.13;;;3.78;;
23175;SDS011;19910;42.652;23.332;2023-05-27T06:28:50;9.45;;;4.30;;
23175;SDS011;19910;42.652;23.332;2023-05-27T06:31:16;7.35;;;4.00;;
23175;SDS011;19910;42.652;23.332;2023-05-27T06:33:43;6.20;;;4.30;;
23175;SDS011;19910;42.652;23.332;2023-05-27T06:36:10;6.70;;;4.03;;
23175;SDS011;19910;42.652;23.332;2023-05-27T06:38:37;5.47;;;4.10;;
23175;SDS011;19910;42.652;23.332;2023-05-27T06:41:03;8.00;;;4.40;;
23175;SDS011;19910;42.652;23.332;2023-05-27T06:43:30;7.65;;;4.43;;
23175;SDS011;19910;42.652;23.332;2023-05-27T06:45:58;6.13;;;4.60;;
23175;SDS011;19910;42.652;23.332;2023-05-27T06:48:25;7.25;;;4.68;;
23175;SDS011;19910;42.652;23.332;2023-05-27T06:50:52;6.55;;;4.95;;
23175;SDS011;19910;42.652;23.332;2023-05-27T06:53:19;7.80;;;4.80;;
23175;SDS011;19910;42.652;23.332;2023-05-27T06:55:50;11.90;;;6.60;;
23175;SDS011;19910;42.652;23.332;2023-05-27T06:58:17;8.82;;;5.80;;
23175;SDS011;19910;42.652;23.332;2023-05-27T07:00:44;7.50;;;4.50;;
23175;SDS011;19910;42.652;23.332;2023-05-27T07:03:12;8.63;;;4.50;;
23175;SDS011;19910;42.652;23.332;2023-05-27T07:05:39;9.63;;;4.60;;
23175;SDS011;19910;42.652;23.332;2023-05-27T07:08:06;8.82;;;5.30;;
23175;SDS011;19910;42.652;23.332;2023-05-27T07:10:33;11.13;;;5.15;;
23175;SDS011;19910;42.652;23.332;2023-05-27T07:12:59;10.13;;;5.05;;
23175;SDS011;19910;42.652;23.332;2023-05-27T07:15:26;9.20;;;5.05;;
23175;SDS011;19910;42.652;23.332;2023-05-27T07:17:53;9.68;;;4.72;;
23175;SDS011;19910;42.652;23.332;2023-05-27T07:20:21;8.80;;;4.70;;
23175;SDS011;19910;42.652;23.332;2023-05-27T07:22:48;11.00;;;5.07;;
23175;SDS011;19910;42.652;23.332;2023-05-27T07:25:15;5.80;;;4.40;;
23175;SDS011;19910;42.652;23.332;2023-05-27T07:27:41;9.55;;;4.95;;
23175;SDS011;19910;42.652;23.332;2023-05-27T07:30:09;7.57;;;5.55;;
23175;SDS011;19910;42.652;23.332;2023-05-27T07:32:36;7.40;;;5.60;;
23175;SDS011;19910;42.652;23.332;2023-05-27T07:35:03;7.47;;;4.90;;
23175;SDS011;19910;42.652;23.332;2023-05-27T07:37:32;10.05;;;4.88;;
23175;SDS011;19910;42.652;23.332;2023-05-27T07:39:59;7.93;;;5.50;;
23175;SDS011;19910;42.652;23.332;2023-05-27T07:42:26;7.32;;;4.45;;
23175;SDS011;19910;42.652;23.332;2023-05-27T07:44:53;7.90;;;4.93;;
23175;SDS011;19910;42.652;23.332;2023-05-27T07:47:20;8.40;;;5.35;;
23175;SDS011;19910;42.652;23.332;2023-05-27T07:49:48;10.77;;;6.22;;
23175;SDS011;19910;42.652;23.332;2023-05-27T07:52:15;10.68;;;6.10;;
23175;SDS011;19910;42.652;23.332;2023-05-27T07:54:44;7.18;;;5.03;;
23175;SDS011;19910;42.652;23.332;2023-05-27T07:57:10;7.80;;;6.18;;
23175;SDS011;19910;42.652;23.332;2023-05-27T07:59:37;7.40;;;5.53;;
23175;SDS011;19910;42.652;23.332;2023-05-27T08:02:04;7.78;;;5.32;;
23175;SDS011;19910;42.652;23.332;2023-05-27T08:04:31;7.35;;;4.13;;
23175;SDS011;19910;42.652;23.332;2023-05-27T08:06:58;4.72;;;3.72;;
23175;SDS011;19910;42.652;23.332;2023-05-27T08:09:24;4.60;;;3.30;;
23175;SDS011;19910;42.652;23.332;2023-05-27T08:11:53;4.25;;;3.33;;
23175;SDS011;19910;42.652;23.332;2023-05-27T08:14:20;6.05;;;3.92;;
23175;SDS011;19910;42.652;23.332;2023-05-27T08:16:46;3.42;;;2.95;;
23175;SDS011;19910;42.652;23.332;2023-05-27T08:19:13;3.40;;;2.83;;
23175;SDS011;19910;42.652;23.332;2023-05-27T08:21:40;4.05;;;3.28;;
23175;SDS011;19910;42.652;23.332;2023-05-27T08:24:07;4.43;;;3.08;;
23175;SDS011;19910;42.652;23.332;2023-05-27T08:26:33;4.72;;;3.42;;
23175;SDS011;19910;42.652;23.332;2023-05-27T08:29:02;5.05;;;3.60;;
23175;SDS011;19910;42.652;23.332;2023-05-27T08:31:30;4.80;;;3.50;;
23175;SDS011;19910;42.652;23.332;2023-05-27T08:33:57;4.32;;;3.80;;
23175;SDS011;19910;42.652;23.332;2023-05-27T08:36:24;5.80;;;3.65;;
23175;SDS011;19910;42.652;23.332;2023-05-27T08:38:51;6.53;;;3.47;;
23175;SDS011;19910;42.652;23.332;2023-05-27T08:41:17;4.57;;;3.35;;
23175;SDS011;19910;42.652;23.332;2023-05-27T08:43:44;5.07;;;3.80;;
23175;SDS011;19910;42.652;23.332;2023-05-27T08:46:13;6.43;;;4.40;;
23175;SDS011;19910;42.652;23.332;2023-05-27T08:48:40;6.63;;;4.10;;
23175;SDS011;19910;42.652;23.332;2023-05-27T08:51:06;5.65;;;4.07;;
23175;SDS011;19910;42.652;23.332;2023-05-27T08:53:35;5.90;;;4.55;;
23175;SDS011;19910;42.652;23.332;2023-05-27T08:56:02;9.27;;;6.55;;
23175;SDS011;19910;42.652;23.332;2023-05-27T08:58:32;9.40;;;4.90;;
23175;SDS011;19910;42.652;23.332;2023-05-27T09:01:00;8.07;;;4.32;;
23175;SDS011;19910;42.652;23.332;2023-05-27T09:03:29;5.35;;;4.38;;
23175;SDS011;19910;42.652;23.332;2023-05-27T09:05:56;5.88;;;4.32;;
23175;SDS011;19910;42.652;23.332;2023-05-27T09:08:22;7.35;;;4.68;;
23175;SDS011;19910;42.652;23.332;2023-05-27T09:10:49;5.35;;;4.18;;
23175;SDS011;19910;42.652;23.332;2023-05-27T09:13:24;7.07;;;4.47;;
23175;SDS011;19910;42.652;23.332;2023-05-27T09:15:57;6.78;;;4.38;;
23175;SDS011;19910;42.652;23.332;2023-05-27T09:18:25;5.03;;;4.30;;
23175;SDS011;19910;42.652;23.332;2023-05-27T09:20:54;5.20;;;4.20;;
23175;SDS011;19910;42.652;23.332;2023-05-27T09:23:21;4.93;;;3.78;;
23175;SDS011;19910;42.652;23.332;2023-05-27T09:25:48;4.43;;;4.00;;
23175;SDS011;19910;42.652;23.332;2023-05-27T09:28:19;6.00;;;4.03;;
23175;SDS011;19910;42.652;23.332;2023-05-27T09:30:50;4.97;;;4.07;;
23175;SDS011;19910;42.652;23.332;2023-05-27T09:33:21;4.82;;;4.10;;
23175;SDS011;19910;42.652;23.332;2023-05-27T09:35:49;8.35;;;4.78;;
23175;SDS011;19910;42.652;23.332;2023-05-27T09:38:17;6.43;;;4.95;;
23175;SDS011;19910;42.652;23.332;2023-05-27T09:40:44;6.78;;;4.60;;
23175;SDS011;19910;42.652;23.332;2023-05-27T09:43:12;5.00;;;4.50;;
23175;SDS011;19910;42.652;23.332;2023-05-27T09:45:41;6.25;;;4.97;;
23175;SDS011;19910;42.652;23.332;2023-05-27T09:48:08;9.85;;;4.80;;
23175;SDS011;19910;42.652;23.332;2023-05-27T09:50:38;6.10;;;4.47;;
23175;SDS011;19910;42.652;23.332;2023-05-27T09:53:06;8.70;;;4.28;;
23175;SDS011;19910;42.652;23.332;2023-05-27T09:55:35;7.78;;;4.43;;
23175;SDS011;19910;42.652;23.332;2023-05-27T09:58:01;5.72;;;4.30;;
23175;SDS011;19910;42.652;23.332;2023-05-27T10:00:28;6.80;;;4.72;;
23175;SDS011;19910;42.652;23.332;2023-05-27T10:02:57;4.78;;;4.25;;
23175;SDS011;19910;42.652;23.332;2023-05-27T10:05:26;5.88;;;4.72;;
23175;SDS011;19910;42.652;23.332;2023-05-27T10:07:53;8.07;;;4.75;;
23175;SDS011;19910;42.652;23.332;2023-05-27T10:10:20;5.63;;;4.60;;
23175;SDS011;19910;42.652;23.332;2023-05-27T10:12:49;8.68;;;4.95;;
23175;SDS011;19910;42.652;23.332;2023-05-27T10:15:23;6.85;;;4.75;;
23175;SDS011;19910;42.652;23.332;2023-05-27T10:17:52;4.65;;;4.25;;
23175;SDS011;19910;42.652;23.332;2023-05-27T10:20:24;6.63;;;4.38;;
23175;SDS011;19910;42.652;23.332;2023-05-27T10:22:53;7.70;;;4.70;;
23175;SDS011;19910;42.652;23.332;2023-05-27T10:25:21;7.47;;;4.82;;
23175;SDS011;19910;42.652;23.332;2023-05-27T10:27:50;6.70;;;4.50;;
23175;SDS011;19910;42.652;23.332;2023-05-27T10:30:17;8.55;;;4.70;;
23175;SDS011;19910;42.652;23.332;2023-05-27T10:32:44;5.05;;;4.50;;
23175;SDS011;19910;42.652;23.332;2023-05-27T10:35:14;6.60;;;5.07;;
23175;SDS011;19910;42.652;23.332;2023-05-27T10:37:41;7.07;;;5.25;;
23175;SDS011;19910;42.652;23.332;2023-05-27T10:40:08;6.10;;;4.80;;
23175;SDS011;19910;42.652;23.332;2023-05-27T10:42:36;9.23;;;5.40;;
23175;SDS011;19910;42.652;23.332;2023-05-27T10:45:05;8.90;;;5.50;;
23175;SDS011;19910;42.652;23.332;2023-05-27T10:47:36;8.48;;;5.10;;
23175;SDS011;19910;42.652;23.332;2023-05-27T10:50:10;7.30;;;4.90;;
23175;SDS011;19910;42.652;23.332;2023-05-27T10:52:39;5.25;;;4.15;;
23175;SDS011;19910;42.652;23.332;2023-05-27T10:55:07;8.20;;;4.88;;
23175;SDS011;19910;42.652;23.332;2023-05-27T10:57:34;10.20;;;5.07;;
23175;SDS011;19910;42.652;23.332;2023-05-27T11:00:02;5.78;;;4.30;;
23175;SDS011;19910;42.652;23.332;2023-05-27T11:02:35;5.45;;;4.38;;
23175;SDS011;19910;42.652;23.332;2023-05-27T11:05:10;5.97;;;4.57;;
23175;SDS011;19910;42.652;23.332;2023-05-27T11:07:40;5.20;;;4.50;;
23175;SDS011;19910;42.652;23.332;2023-05-27T11:10:08;5.38;;;4.78;;
23175;SDS011;19910;42.652;23.332;2023-05-27T11:12:35;6.07;;;4.68;;
23175;SDS011;19910;42.652;23.332;2023-05-27T11:15:02;9.65;;;5.10;;
23175;SDS011;19910;42.652;23.332;2023-05-27T11:17:30;8.32;;;5.03;;
23175;SDS011;19910;42.652;23.332;2023-05-27T11:19:58;8.18;;;4.85;;
23175;SDS011;19910;42.652;23.332;2023-05-27T11:22:25;7.47;;;5.20;;
23175;SDS011;19910;42.652;23.332;2023-05-27T11:24:56;7.38;;;4.95;;
23175;SDS011;19910;42.652;23.332;2023-05-27T11:27:23;6.03;;;4.82;;
23175;SDS011;19910;42.652;23.332;2023-05-27T11:29:51;6.63;;;5.18;;
23175;SDS011;19910;42.652;23.332;2023-05-27T11:32:19;7.90;;;5.00;;
23175;SDS011;19910;42.652;23.332;2023-05-27T11:34:46;5.97;;;5.25;;
23175;SDS011;19910;42.652;23.332;2023-05-27T11:37:15;5.78;;;5.00;;
23175;SDS011;19910;42.652;23.332;2023-05-27T11:39:48;5.65;;;4.70;;
23175;SDS011;19910;42.652;23.332;2023-05-27T11:42:20;8.85;;;5.43;;
23175;SDS011;19910;42.652;23.332;2023-05-27T11:44:49;7.10;;;5.30;;
23175;SDS011;19910;42.652;23.332;2023-05-27T11:47:17;6.80;;;5.70;;
23175;SDS011;19910;42.652;23.332;2023-05-27T11:49:45;7.43;;;5.80;;
23175;SDS011;19910;42.652;23.332;2023-05-27T11:52:12;10.20;;;5.13;;
23175;SDS011;19910;42.652;23.332;2023-05-27T11:54:41;8.57;;;5.00;;
23175;SDS011;19910;42.652;23.332;2023-05-27T11:57:08;10.43;;;5.20;;
23175;SDS011;19910;42.652;23.332;2023-05-27T11:59:35;6.05;;;4.70;;
23175;SDS011;19910;42.652;23.332;2023-05-27T12:02:03;5.20;;;4.68;;
23175;SDS011;19910;42.652;23.332;2023-05-27T12:04:30;10.70;;;5.57;;
23175;SDS011;19910;42.652;23.332;2023-05-27T12:06:57;6.03;;;5.15;;
23175;SDS011;19910;42.652;23.332;2023-05-27T12:09:26;5.78;;;5.03;;
23175;SDS011;19910;42.652;23.332;2023-05-27T12:11:53;7.97;;;4.93;;
23175;SDS011;19910;42.652;23.332;2023-05-27T12:14:20;8.50;;;4.78;;
23175;SDS011;19910;42.652;23.332;2023-05-27T12:16:47;5.72;;;5.00;;
23175;SDS011;19910;42.652;23.332;2023-05-27T12:19:14;6.20;;;4.53;;
23175;SDS011;19910;42.652;23.332;2023-05-27T12:21:41;7.88;;;5.07;;
23175;SDS011;19910;42.652;23.332;2023-05-27T12:24:08;6.28;;;4.68;;
23175;SDS011;19910;42.652;23.332;2023-05-27T12:26:36;8.23;;;3.95;;
23175;SDS011;19910;42.652;23.332;2023-05-27T12:29:05;5.55;;;3.88;;
23175;SDS011;19910;42.652;23.332;2023-05-27T12:31:32;6.47;;;4.22;;
23175;SDS011;19910;42.652;23.332;2023-05-27T12:33:59;4.93;;;4.38;;
23175;SDS011;19910;42.652;23.332;2023-05-27T12:36:26;6.55;;;4.72;;
23175;SDS011;19910;42.652;23.332;2023-05-27T12:38:53;5.68;;;4.18;;
23175;SDS011;19910;42.652;23.332;2023-05-27T12:41:20;6.20;;;4.38;;
23175;SDS011;19910;42.652;23.332;2023-05-27T12:43:48;5.75;;;4.80;;
23175;SDS011;19910;42.652;23.332;2023-05-27T12:46:15;6.18;;;4.68;;
23175;SDS011;19910;42.652;23.332;2023-05-27T12:48:42;5.95;;;4.60;;
23175;SDS011;19910;42.652;23.332;2023-05-27T12:51:09;7.28;;;4.65;;
23175;SDS011;19910;42.652;23.332;2023-05-27T12:53:36;6.03;;;4.80;;
23175;SDS011;19910;42.652;23.332;2023-05-27T12:56:02;6.65;;;4.57;;
23175;SDS011;19910;42.652;23.332;2023-05-27T12:58:29;4.90;;;4.40;;
23175;SDS011;19910;42.652;23.332;2023-05-27T13:00:57;4.50;;;4.10;;
23175;SDS011;19910;42.652;23.332;2023-05-27T13:03:24;5.53;;;4.57;;
23175;SDS011;19910;42.652;23.332;2023-05-27T13:05:51;7.68;;;4.40;;
23175;SDS011;19910;42.652;23.332;2023-05-27T13:08:18;4.85;;;4.15;;
23175;SDS011;19910;42.652;23.332;2023-05-27T13:10:44;7.70;;;4.10;;
23175;SDS011;19910;42.652;23.332;2023-05-27T13:13:11;6.65;;;4.55;;
23175;SDS011;19910;42.652;23.332;2023-05-27T13:15:38;5.30;;;4.10;;
23175;SDS011;19910;42.652;23.332;2023-05-27T13:18:06;5.03;;;4.53;;
23175;SDS011;19910;42.652;23.332;2023-05-27T13:20:35;4.43;;;3.85;;
23175;SDS011;19910;42.652;23.332;2023-05-27T13:23:02;5.40;;;4.45;;
23175;SDS011;19910;42.652;23.332;2023-05-27T13:25:29;5.53;;;4.43;;
23175;SDS011;19910;42.652;23.332;2023-05-27T13:27:56;7.72;;;5.15;;
23175;SDS011;19910;42.652;23.332;2023-05-27T13:30:23;5.78;;;4.93;;
23175;SDS011;19910;42.652;23.332;2023-05-27T13:32:51;5.13;;;4.35;;
23175;SDS011;19910;42.652;23.332;2023-05-27T13:35:19;6.28;;;4.72;;
23175;SDS011;19910;42.652;23.332;2023-05-27T13:37:46;7.28;;;4.78;;
23175;SDS011;19910;42.652;23.332;2023-05-27T13:40:12;7.35;;;4.70;;
23175;SDS011;19910;42.652;23.332;2023-05-27T13:42:39;5.78;;;4.43;;
23175;SDS011;19910;42.652;23.332;2023-05-27T13:45:07;6.25;;;4.63;;
23175;SDS011;19910;42.652;23.332;2023-05-27T13:47:34;4.95;;;4.45;;
23175;SDS011;19910;42.652;23.332;2023-05-27T13:50:04;5.40;;;4.50;;
23175;SDS011;19910;42.652;23.332;2023-05-27T13:52:33;5.13;;;4.28;;
23175;SDS011;19910;42.652;23.332;2023-05-27T13:54:59;11.88;;;8.25;;
23175;SDS011;19910;42.652;23.332;2023-05-27T13:57:26;5.40;;;4.53;;
23175;SDS011;19910;42.652;23.332;2023-05-27T13:59:53;5.20;;;4.47;;
23175;SDS011;19910;42.652;23.332;2023-05-27T14:02:20;4.93;;;4.13;;
23175;SDS011;19910;42.652;23.332;2023-05-27T14:04:47;5.47;;;4.07;;
23175;SDS011;19910;42.652;23.332;2023-05-27T14:07:14;6.97;;;4.43;;
23175;SDS011;19910;42.652;23.332;2023-05-27T14:09:43;25.83;;;19.25;;
23175;SDS011;19910;42.652;23.332;2023-05-27T14:12:10;6.13;;;4.35;;
23175;SDS011;19910;42.652;23.332;2023-05-27T14:14:37;4.68;;;4.22;;
23175;SDS011;19910;42.652;23.332;2023-05-27T14:17:03;5.47;;;3.97;;
23175;SDS011;19910;42.652;23.332;2023-05-27T14:19:31;6.40;;;4.50;;
23175;SDS011;19910;42.652;23.332;2023-05-27T14:21:58;14.18;;;11.68;;
23175;SDS011;19910;42.652;23.332;2023-05-27T14:24:24;10.13;;;9.05;;
23175;SDS011;19910;42.652;23.332;2023-05-27T14:26:52;4.68;;;4.15;;
23175;SDS011;19910;42.652;23.332;2023-05-27T14:29:19;5.85;;;4.63;;
23175;SDS011;19910;42.652;23.332;2023-05-27T14:31:46;5.40;;;4.20;;
23175;SDS011;19910;42.652;23.332;2023-05-27T14:34:13;6.25;;;4.20;;
23175;SDS011;19910;42.652;23.332;2023-05-27T14:36:39;5.20;;;4.38;;